createdAt,value
2022-11-16T00:02:16.550Z,99777.38
2022-11-16T00:04:42.986Z,99782.63
2022-11-16T00:07:09.951Z,99774.69
2022-11-16T00:09:36.411Z,99785.28
2022-11-16T00:12:06.331Z,99783.50
2022-11-16T00:14:35.291Z,99780.84
2022-11-16T00:17:02.432Z,99779.97
2022-11-16T00:19:29.239Z,99778.22
2022-11-16T00:21:55.868Z,99778.22
2022-11-16T00:24:23.410Z,99785.22
2022-11-16T00:26:50.437Z,99777.38
2022-11-16T00:29:19.482Z,99787.84
2022-11-16T00:31:46.381Z,99778.22
2022-11-16T00:34:13.630Z,99781.59
2022-11-16T00:36:39.993Z,99788.59
2022-11-16T00:39:06.397Z,99786.84
2022-11-16T00:41:32.979Z,99778.06
2022-11-16T00:43:59.316Z,99774.56
2022-11-16T00:46:25.781Z,99778.06
2022-11-16T00:48:52.214Z,99776.31
2022-11-16T00:51:18.697Z,99776.31
2022-11-16T00:53:45.014Z,99771.97
2022-11-16T00:56:11.469Z,99778.13
2022-11-16T00:58:37.837Z,99761.44
2022-11-16T01:01:06.357Z,99758.81
2022-11-16T01:03:34.233Z,99749.19
2022-11-16T01:06:06.002Z,99763.16
2022-11-16T01:08:35.074Z,99773.72
2022-11-16T01:11:21.716Z,99773.69
2022-11-16T01:13:49.156Z,99763.16
2022-11-16T01:16:16.615Z,99772.78
2022-11-16T01:18:43.880Z,99764.88
2022-11-16T01:21:10.437Z,99753.53
2022-11-16T01:23:36.823Z,99755.25
2022-11-16T01:26:09.124Z,99757.03
2022-11-16T01:28:35.900Z,99764.06
2022-11-16T01:31:02.704Z,99757.88
2022-11-16T01:33:29.683Z,99752.59
2022-11-16T01:35:56.032Z,99749.97
2022-11-16T01:38:25.914Z,99747.28
2022-11-16T01:40:54.893Z,99744.66
2022-11-16T01:43:26.989Z,99746.41
2022-11-16T01:45:53.340Z,99740.16
2022-11-16T01:48:27.596Z,99748.13
2022-11-16T01:50:55.038Z,99737.59
2022-11-16T01:53:24.000Z,99735.81
2022-11-16T01:55:50.705Z,99737.59
2022-11-16T01:58:23.218Z,99736.72
2022-11-16T02:00:50.162Z,99734.97
2022-11-16T02:03:20.690Z,99722.69
2022-11-16T02:06:22.816Z,99729.63
2022-11-16T02:09:39.120Z,99730.53
2022-11-16T02:12:26.958Z,99727.06
2022-11-16T02:15:23.266Z,99728.81
2022-11-16T02:17:55.644Z,99729.63
2022-11-16T02:20:46.674Z,99736.59
2022-11-16T02:23:43.290Z,99720.66
2022-11-16T02:26:28.141Z,99723.28
2022-11-16T02:29:18.961Z,99722.34
2022-11-16T02:32:04.729Z,99710.88
2022-11-16T02:34:39.194Z,99720.50
2022-11-16T02:37:09.650Z,99722.31
2022-11-16T02:39:41.188Z,99718.78
2022-11-16T02:42:15.476Z,99719.66
2022-11-16T02:44:47.365Z,99722.25
2022-11-16T02:47:20.857Z,99718.72
2022-11-16T02:49:52.754Z,99723.94
2022-11-16T02:52:21.451Z,99718.69
2022-11-16T02:54:47.780Z,99732.69
2022-11-16T02:57:35.279Z,99722.13
2022-11-16T03:00:02.664Z,99723.00
2022-11-16T03:02:55.896Z,99723.00
2022-11-16T03:05:35.248Z,99730.06
2022-11-16T03:08:38.564Z,99723.94
2022-11-16T03:11:26.139Z,99717.88
2022-11-16T03:13:57.292Z,99733.72
2022-11-16T03:16:30.006Z,99732.78
2022-11-16T03:18:58.873Z,99726.66
2022-11-16T03:21:43.705Z,99719.66
2022-11-16T03:24:10.792Z,99721.44
2022-11-16T03:26:49.276Z,99730.13
2022-11-16T03:29:29.226Z,99719.66
2022-11-16T03:32:03.635Z,99725.78
2022-11-16T03:34:35.869Z,99725.75
2022-11-16T03:37:04.017Z,99720.53
2022-11-16T03:39:35.627Z,99716.97
2022-11-16T03:42:06.668Z,99730.16
2022-11-16T03:44:33.586Z,99731.91
2022-11-16T03:47:01.598Z,99739.94
2022-11-16T03:49:31.310Z,99739.09
2022-11-16T03:52:01.308Z,99731.22
2022-11-16T03:54:27.649Z,99732.09
2022-11-16T03:56:53.982Z,99743.47
2022-11-16T03:59:20.326Z,99746.16
2022-11-16T04:01:46.782Z,99740.03
2022-11-16T04:04:35.436Z,99745.31
2022-11-16T04:07:22.167Z,99746.22
2022-11-16T04:10:07.097Z,99742.69
2022-11-16T04:12:52.174Z,99740.97
2022-11-16T04:15:36.974Z,99741.88
2022-11-16T04:18:22.558Z,99740.16
2022-11-16T04:21:07.949Z,99733.25
2022-11-16T04:23:52.633Z,99750.69
2022-11-16T04:26:18.967Z,99755.06
2022-11-16T04:28:45.459Z,99755.91
2022-11-16T04:31:30.510Z,99750.66
2022-11-16T04:34:15.290Z,99748.00
2022-11-16T04:37:00.227Z,99749.78
2022-11-16T04:39:26.592Z,99761.19
2022-11-16T04:42:11.522Z,99757.69
2022-11-16T04:45:00.446Z,99762.16
2022-11-16T04:47:26.762Z,99764.00
2022-11-16T04:49:53.069Z,99765.78
2022-11-16T04:52:19.430Z,99760.53
2022-11-16T04:54:45.804Z,99765.78
2022-11-16T04:57:12.141Z,99776.31
2022-11-16T04:59:38.557Z,99769.34
2022-11-16T05:02:10.857Z,99764.06
2022-11-16T05:04:39.634Z,99749.19
2022-11-16T05:07:10.919Z,99758.78
2022-11-16T05:09:44.731Z,99755.25
2022-11-16T05:12:15.487Z,99764.09
2022-11-16T05:14:42.766Z,99764.09
2022-11-16T05:17:09.884Z,99772.00
2022-11-16T05:19:54.843Z,99779.03
2022-11-16T05:22:21.412Z,99780.81
2022-11-16T05:24:47.757Z,99775.59
2022-11-16T05:27:16.234Z,99775.59
2022-11-16T05:29:42.659Z,99778.22
2022-11-16T05:32:11.169Z,99778.25
2022-11-16T05:34:37.873Z,99783.50
2022-11-16T05:37:04.385Z,99777.44
2022-11-16T05:39:30.731Z,99779.16
2022-11-16T05:41:57.505Z,99785.28
2022-11-16T05:44:24.535Z,99787.06
2022-11-16T05:46:51.145Z,99782.81
2022-11-16T05:49:17.903Z,99795.03
2022-11-16T05:51:46.147Z,99799.50
2022-11-16T05:54:18.597Z,99796.97
2022-11-16T05:56:45.849Z,99798.81
2022-11-16T05:59:16.598Z,99799.78
2022-11-16T06:01:44.267Z,99798.09
2022-11-16T06:04:11.453Z,99801.66
2022-11-16T06:06:38.420Z,99798.16
2022-11-16T06:09:05.147Z,99792.16
2022-11-16T06:11:35.779Z,99810.53
2022-11-16T06:14:03.436Z,99803.53
2022-11-16T06:16:29.837Z,99796.63
2022-11-16T06:18:56.312Z,99804.50
2022-11-16T06:21:25.363Z,99806.31
2022-11-16T06:23:57.463Z,99808.97
2022-11-16T06:26:23.701Z,99796.72
2022-11-16T06:28:50.294Z,99794.16
2022-11-16T06:31:16.864Z,99804.69
2022-11-16T06:33:43.353Z,99803.81
2022-11-16T06:36:09.716Z,99798.59
2022-11-16T06:38:36.358Z,99804.75
2022-11-16T06:41:03.194Z,99804.75
2022-11-16T06:43:29.662Z,99803.94
2022-11-16T06:45:57.801Z,99818.88
2022-11-16T06:48:24.909Z,99815.44
2022-11-16T06:50:52.127Z,99815.47
2022-11-16T06:53:19.112Z,99817.22
2022-11-16T06:55:47.750Z,99819.03
2022-11-16T06:58:14.565Z,99826.06
2022-11-16T07:00:41.084Z,99828.69
2022-11-16T07:03:07.475Z,99823.47
2022-11-16T07:05:36.036Z,99830.50
2022-11-16T07:08:02.405Z,99820.00
2022-11-16T07:10:28.740Z,99823.53
2022-11-16T07:12:55.077Z,99831.41
2022-11-16T07:15:21.850Z,99840.25
2022-11-16T07:17:48.186Z,99844.69
2022-11-16T07:20:14.812Z,99848.22
2022-11-16T07:22:41.165Z,99842.16
2022-11-16T07:25:08.221Z,99849.19
2022-11-16T07:27:34.676Z,99852.72
2022-11-16T07:30:02.083Z,99853.59
2022-11-16T07:32:31.000Z,99854.47
2022-11-16T07:34:59.376Z,99866.75
2022-11-16T07:37:26.012Z,99871.13
2022-11-16T07:39:52.853Z,99875.50
2022-11-16T07:42:19.278Z,99875.50
2022-11-16T07:44:45.705Z,99880.78
2022-11-16T07:47:12.093Z,99878.13
2022-11-16T07:49:38.603Z,99888.66
2022-11-16T07:52:05.161Z,99888.50
2022-11-16T07:54:31.478Z,99895.31
2022-11-16T07:56:57.829Z,99897.03
2022-11-16T07:59:24.236Z,99890.94
2022-11-16T08:01:50.653Z,99898.81
2022-11-16T08:04:19.771Z,99891.00
2022-11-16T08:06:46.831Z,99896.28
2022-11-16T08:09:13.978Z,99904.19
2022-11-16T08:11:40.394Z,99908.59
2022-11-16T08:14:06.748Z,99907.69
2022-11-16T08:16:33.300Z,99909.41
2022-11-16T08:19:01.139Z,99916.44
2022-11-16T08:21:27.571Z,99911.22
2022-11-16T08:23:58.419Z,99920.06
2022-11-16T08:26:25.670Z,99919.22
2022-11-16T08:28:53.690Z,99923.59
2022-11-16T08:31:24.037Z,99914.81
2022-11-16T08:33:51.788Z,99917.44
2022-11-16T08:36:18.873Z,99913.03
2022-11-16T08:38:47.232Z,99916.50
2022-11-16T08:41:14.022Z,99908.59
2022-11-16T08:43:41.530Z,99923.50
2022-11-16T08:46:09.493Z,99926.16
2022-11-16T08:48:37.589Z,99918.25
2022-11-16T08:51:22.000Z,99919.94
2022-11-16T08:53:49.373Z,99929.53
2022-11-16T08:56:18.385Z,99929.47
2022-11-16T08:58:46.978Z,99928.41
2022-11-16T09:01:20.128Z,99924.81
2022-11-16T09:03:47.242Z,99918.59
2022-11-16T09:06:14.311Z,99919.28
2022-11-16T09:08:43.000Z,99915.44
2022-11-16T09:11:12.746Z,99920.16
2022-11-16T09:13:39.754Z,99922.22
2022-11-16T09:16:06.279Z,99921.59
2022-11-16T09:18:36.927Z,99927.03
2022-11-16T09:21:03.927Z,99916.00
2022-11-16T09:23:30.314Z,99930.06
2022-11-16T09:26:01.429Z,99922.28
2022-11-16T09:28:28.029Z,99929.19
2022-11-16T09:31:02.467Z,99931.75
2022-11-16T09:33:31.168Z,99929.28
2022-11-16T09:36:06.991Z,99933.75
2022-11-16T09:42:08.240Z,99941.31
2022-11-16T09:44:40.241Z,99933.78
2022-11-16T09:47:11.445Z,99949.88
2022-11-16T09:49:47.721Z,99951.13
2022-11-16T09:52:28.352Z,99945.97
2022-11-16T09:54:57.935Z,99952.97
2022-11-16T09:57:32.518Z,99956.50
2022-11-16T10:00:04.368Z,99950.50
2022-11-16T10:02:41.837Z,99954.00
2022-11-16T10:05:21.672Z,99944.13
2022-11-16T10:08:00.100Z,99958.97
2022-11-16T10:10:36.688Z,99946.56
2022-11-16T10:13:20.755Z,99944.50
2022-11-16T10:16:14.428Z,99957.53
2022-11-16T10:19:00.385Z,99940.81
2022-11-16T10:21:55.227Z,99951.53
2022-11-16T10:24:44.689Z,99945.19
2022-11-16T10:27:53.051Z,99933.72
2022-11-16T10:30:21.742Z,99943.72
2022-11-16T10:33:13.329Z,99937.94
2022-11-16T10:36:10.854Z,99946.44
2022-11-16T10:38:37.694Z,99935.50
2022-11-16T10:41:14.240Z,99932.13
2022-11-16T10:43:43.321Z,99935.22
2022-11-16T10:46:21.337Z,99927.81
2022-11-16T10:48:47.591Z,99930.16
2022-11-16T10:51:13.977Z,99923.38
2022-11-16T10:53:43.730Z,99928.16
2022-11-16T10:56:21.831Z,99932.06
2022-11-16T10:58:56.520Z,99934.84
2022-11-16T11:01:53.263Z,99936.88
2022-11-16T11:04:24.308Z,99929.63
2022-11-16T11:06:58.326Z,99931.38
2022-11-16T11:09:38.495Z,99934.38
2022-11-16T11:12:34.292Z,99920.88
2022-11-16T11:15:25.839Z,99928.84
2022-11-16T11:18:14.501Z,99927.03
2022-11-16T11:20:45.014Z,99934.22
2022-11-16T11:23:24.770Z,99927.97
2022-11-16T11:25:59.352Z,99925.50
2022-11-16T11:28:27.679Z,99924.16
2022-11-16T11:31:08.073Z,99917.19
2022-11-16T11:33:42.631Z,99916.38
2022-11-16T11:36:18.561Z,99904.75
2022-11-16T11:39:06.329Z,99916.56
2022-11-16T11:41:36.901Z,99903.22
2022-11-16T11:44:12.501Z,99908.16
2022-11-16T11:49:38.257Z,99918.44
2022-11-16T11:52:33.967Z,99897.22
2022-11-16T11:55:05.874Z,99900.72
2022-11-16T11:57:36.604Z,99903.66
2022-11-16T12:00:03.650Z,99911.25
2022-11-16T12:02:46.678Z,99900.63
2022-11-16T12:05:45.584Z,99904.94
2022-11-16T12:08:51.161Z,99902.84
2022-11-16T12:11:50.201Z,99919.44
2022-11-16T12:14:32.523Z,99920.16
2022-11-16T12:17:09.962Z,99911.69
2022-11-16T12:20:19.115Z,99912.38
2022-11-16T12:23:17.943Z,99912.84
2022-11-16T12:25:57.791Z,99911.84
2022-11-16T12:28:46.024Z,99922.59
2022-11-16T12:31:28.412Z,99912.41
2022-11-16T12:34:37.882Z,99900.47
2022-11-16T12:37:16.143Z,99899.34
2022-11-16T12:40:14.076Z,99915.03
2022-11-16T12:42:58.408Z,99899.72
2022-11-16T12:45:37.523Z,99890.13
2022-11-16T12:48:12.986Z,99886.91
2022-11-16T12:50:50.315Z,99892.19
2022-11-16T12:53:41.290Z,99876.50
2022-11-16T12:56:28.900Z,99879.22
2022-11-16T12:59:16.515Z,99870.66
2022-11-16T13:02:12.428Z,99879.91
2022-11-16T13:04:46.045Z,99867.91
2022-11-16T13:07:34.818Z,99872.41
2022-11-16T13:10:07.092Z,99868.59
2022-11-16T13:12:36.259Z,99866.00
2022-11-16T13:15:03.315Z,99848.06
2022-11-16T13:17:36.939Z,99854.41
2022-11-16T13:20:14.925Z,99845.22
2022-11-16T13:22:50.775Z,99850.03
2022-11-16T13:25:33.739Z,99841.41
2022-11-16T13:28:20.319Z,99853.22
2022-11-16T13:31:02.055Z,99847.25
2022-11-16T13:33:34.131Z,99860.06
2022-11-16T13:36:32.297Z,99858.06
2022-11-16T13:38:58.693Z,99861.38
2022-11-16T13:41:35.529Z,99872.56
2022-11-16T13:44:04.351Z,99865.63
2022-11-16T13:46:56.142Z,99875.22
2022-11-16T13:49:48.011Z,99863.56
2022-11-16T13:52:23.863Z,99856.88
2022-11-16T13:54:55.375Z,99860.16
2022-11-16T13:57:31.141Z,99848.81
2022-11-16T14:00:00.280Z,99842.69
2022-11-16T14:02:34.061Z,99841.25
2022-11-16T14:05:15.440Z,99848.44
2022-11-16T14:07:52.059Z,99844.09
2022-11-16T14:10:35.986Z,99845.91
2022-11-16T14:13:04.378Z,99853.06
2022-11-16T14:15:39.728Z,99827.69
2022-11-16T14:18:12.047Z,99826.78
2022-11-16T14:20:52.165Z,99821.59
2022-11-16T14:23:44.329Z,99828.84
2022-11-16T14:26:44.711Z,99827.31
2022-11-16T14:29:25.916Z,99820.44
2022-11-16T14:31:57.473Z,99824.25
2022-11-16T14:34:30.148Z,99818.44
2022-11-16T14:36:58.210Z,99817.59
2022-11-16T14:39:38.726Z,99826.34
2022-11-16T14:42:27.279Z,99810.75
2022-11-16T14:45:07.201Z,99801.22
2022-11-16T14:47:37.024Z,99803.00
2022-11-16T14:50:03.763Z,99799.59
2022-11-16T14:52:44.922Z,99793.47
2022-11-16T14:55:19.749Z,99808.47
2022-11-16T14:57:46.579Z,99792.84
2022-11-16T15:00:25.660Z,99791.16
2022-11-16T15:02:57.791Z,99787.69
2022-11-16T15:05:33.824Z,99775.47
2022-11-16T15:08:01.309Z,99779.00
2022-11-16T15:10:29.014Z,99783.47
2022-11-16T15:12:57.537Z,99776.53
2022-11-16T15:15:27.513Z,99775.66
2022-11-16T15:18:00.000Z,99770.50
2022-11-16T15:20:29.057Z,99774.13
2022-11-16T15:22:59.532Z,99768.22
2022-11-16T15:25:31.905Z,99753.31
2022-11-16T15:28:00.669Z,99759.53
2022-11-16T15:30:34.129Z,99756.09
2022-11-16T15:33:15.043Z,99752.69
2022-11-16T15:35:41.411Z,99749.13
2022-11-16T15:38:21.449Z,99750.03
2022-11-16T15:40:56.554Z,99745.63
2022-11-16T15:43:29.660Z,99738.56
2022-11-16T15:45:57.047Z,99726.25
2022-11-16T15:48:25.258Z,99720.19
2022-11-16T15:51:08.480Z,99715.88
2022-11-16T15:53:46.123Z,99703.78
2022-11-16T15:56:27.474Z,99705.63
2022-11-16T15:59:09.331Z,99713.59
2022-11-16T16:01:42.724Z,99710.13
2022-11-16T16:04:17.996Z,99711.13
2022-11-16T16:06:51.839Z,99696.28
2022-11-16T16:09:28.744Z,99690.22
2022-11-16T16:12:17.043Z,99689.53
2022-11-16T16:14:43.887Z,99702.81
2022-11-16T16:17:12.246Z,99704.63
2022-11-16T16:19:44.189Z,99697.69
2022-11-16T16:22:32.480Z,99694.34
2022-11-16T16:24:59.322Z,99701.38
2022-11-16T16:27:30.142Z,99690.94
2022-11-16T16:29:58.906Z,99699.72
2022-11-16T16:32:26.715Z,99701.69
2022-11-16T16:34:55.091Z,99686.84
2022-11-16T16:37:22.330Z,99682.50
2022-11-16T16:39:48.877Z,99693.94
2022-11-16T16:42:17.043Z,99700.09
2022-11-16T16:44:45.262Z,99693.94
2022-11-16T16:47:12.232Z,99696.59
2022-11-16T16:49:38.586Z,99682.69
2022-11-16T16:52:06.203Z,99675.66
2022-11-16T16:54:32.582Z,99679.13
2022-11-16T16:57:01.303Z,99670.44
2022-11-16T16:59:29.851Z,99670.50
2022-11-16T17:01:57.528Z,99669.66
2022-11-16T17:04:24.825Z,99675.91
2022-11-16T17:06:52.301Z,99668.97
2022-11-16T17:09:18.922Z,99672.50
2022-11-16T17:11:46.892Z,99669.03
2022-11-16T17:14:13.277Z,99667.31
2022-11-16T17:16:39.651Z,99664.66
2022-11-16T17:19:06.056Z,99671.72
2022-11-16T17:21:32.512Z,99653.38
2022-11-16T17:23:58.907Z,99660.41
2022-11-16T17:26:29.151Z,99669.22
2022-11-16T17:28:59.005Z,99657.03
2022-11-16T17:31:26.024Z,99664.06
2022-11-16T17:33:52.547Z,99672.03
2022-11-16T17:36:20.037Z,99671.19
2022-11-16T17:38:46.754Z,99669.47
2022-11-16T17:41:15.695Z,99665.13
2022-11-16T17:43:43.921Z,99669.47
2022-11-16T17:46:13.412Z,99659.81
2022-11-16T17:48:42.183Z,99652.84
2022-11-16T17:51:09.707Z,99650.25
2022-11-16T17:53:36.817Z,99644.13
2022-11-16T17:56:04.301Z,99644.25
2022-11-16T17:58:34.471Z,99651.28
2022-11-16T18:01:00.983Z,99642.47
2022-11-16T18:03:28.391Z,99644.28
2022-11-16T18:06:27.139Z,99638.22
2022-11-16T18:08:53.905Z,99636.56
2022-11-16T18:11:28.525Z,99641.00
2022-11-16T18:13:57.228Z,99636.59
2022-11-16T18:16:25.901Z,99636.66
2022-11-16T18:19:02.515Z,99635.78
2022-11-16T18:21:29.717Z,99630.63
2022-11-16T18:23:58.879Z,99632.34
2022-11-16T18:26:25.246Z,99634.94
2022-11-16T18:28:52.771Z,99627.84
2022-11-16T18:31:21.399Z,99640.03
2022-11-16T18:33:49.188Z,99637.41
2022-11-16T18:36:16.243Z,99619.13
2022-11-16T18:38:42.719Z,99631.19
2022-11-16T18:41:11.762Z,99633.78
2022-11-16T18:43:42.384Z,99616.34
2022-11-16T18:46:08.766Z,99613.66
2022-11-16T18:48:35.093Z,99609.25
2022-11-16T18:51:03.534Z,99602.25
2022-11-16T18:53:31.770Z,99607.59
2022-11-16T18:55:58.555Z,99609.34
2022-11-16T19:01:18.100Z,99577.16
2022-11-16T19:03:44.796Z,99585.75
2022-11-16T19:06:11.806Z,99582.31
2022-11-16T19:08:39.542Z,99577.06
2022-11-16T19:11:13.102Z,99578.84
2022-11-16T19:13:40.743Z,99571.00
2022-11-16T19:16:09.136Z,99558.78
2022-11-16T19:18:38.444Z,99551.81
2022-11-16T19:21:10.639Z,99542.19
2022-11-16T19:23:41.320Z,99526.44
2022-11-16T19:26:07.794Z,99531.81
2022-11-16T19:28:40.887Z,99525.63
2022-11-16T19:31:12.588Z,99529.06
2022-11-16T19:33:39.264Z,99521.19
2022-11-16T19:36:17.414Z,99509.78
2022-11-16T19:38:47.918Z,99506.28
2022-11-16T19:41:16.493Z,99500.16
2022-11-16T19:43:43.365Z,99487.94
2022-11-16T19:46:12.693Z,99495.81
2022-11-16T19:48:39.593Z,99484.50
2022-11-16T19:51:06.999Z,99483.59
2022-11-16T19:53:34.132Z,99474.84
2022-11-16T19:56:00.913Z,99470.47
2022-11-16T19:58:27.460Z,99473.13
2022-11-16T20:01:01.305Z,99457.38
2022-11-16T20:03:27.944Z,99453.84
2022-11-16T20:06:04.154Z,99446.06
2022-11-16T20:08:31.594Z,99451.28
2022-11-16T20:10:57.922Z,99438.19
2022-11-16T20:13:24.249Z,99434.66
2022-11-16T20:15:51.002Z,99434.59
2022-11-16T20:18:18.561Z,99422.41
2022-11-16T20:20:45.111Z,99424.16
2022-11-16T20:23:19.130Z,99415.41
2022-11-16T20:25:45.682Z,99420.59
2022-11-16T20:28:12.046Z,99416.19
2022-11-16T20:30:38.390Z,99407.47
2022-11-16T20:33:04.764Z,99411.78
2022-11-16T20:35:32.996Z,99410.91
2022-11-16T20:37:59.335Z,99403.91
2022-11-16T20:40:25.693Z,99399.53
2022-11-16T20:42:52.075Z,99401.25
2022-11-16T20:45:18.407Z,99396.91
2022-11-16T20:47:44.706Z,99387.34
2022-11-16T20:50:11.100Z,99383.75
2022-11-16T20:52:42.380Z,99370.63
2022-11-16T20:55:16.037Z,99368.84
2022-11-16T20:57:42.384Z,99358.34
2022-11-16T21:00:09.345Z,99360.19
2022-11-16T21:02:35.735Z,99359.19
2022-11-16T21:05:02.386Z,99360.00
2022-11-16T21:07:28.823Z,99353.84
2022-11-16T21:10:27.328Z,99347.78
2022-11-16T21:13:12.194Z,99333.72
2022-11-16T21:15:38.513Z,99326.66
2022-11-16T21:18:04.993Z,99314.41
2022-11-16T21:20:31.438Z,99318.69
2022-11-16T21:22:57.750Z,99306.47
2022-11-16T21:25:24.156Z,99300.38
2022-11-16T21:27:50.557Z,99307.31
2022-11-16T21:30:17.073Z,99293.34
2022-11-16T21:32:43.452Z,99289.84
2022-11-16T21:35:09.843Z,99295.94
2022-11-16T21:37:36.228Z,99283.69
2022-11-16T21:40:03.335Z,99286.31
2022-11-16T21:42:29.702Z,99280.19
2022-11-16T21:44:56.035Z,99260.94
2022-11-16T21:47:22.420Z,99261.78
2022-11-16T21:50:16.755Z,99252.19
2022-11-16T21:52:35.064Z,99243.41
2022-11-16T21:55:01.569Z,99236.44
2022-11-16T21:57:27.998Z,99239.06
2022-11-16T21:59:54.381Z,99232.03
2022-11-16T22:02:20.711Z,99225.94
2022-11-16T22:05:05.416Z,99224.13
2022-11-16T22:07:36.626Z,99208.41
2022-11-16T22:10:08.652Z,99202.22
2022-11-16T22:12:36.381Z,99202.38
2022-11-16T22:15:04.322Z,99203.13
2022-11-16T22:17:31.022Z,99196.97
2022-11-16T22:19:57.368Z,99192.63
2022-11-16T22:22:24.539Z,99175.09
2022-11-16T22:24:51.159Z,99173.38
2022-11-16T22:27:18.513Z,99168.13
2022-11-16T22:29:44.835Z,99134.13
2022-11-16T22:32:11.151Z,99141.91
2022-11-16T22:34:37.564Z,99117.59
2022-11-16T22:37:03.926Z,99126.16
2022-11-16T22:39:30.374Z,99116.53
2022-11-16T22:41:56.822Z,99113.06
2022-11-16T22:44:23.181Z,99102.53
2022-11-16T22:46:49.499Z,99101.75
2022-11-16T22:49:15.858Z,99093.03
2022-11-16T22:51:42.271Z,99082.56
2022-11-16T22:54:11.316Z,99075.56
2022-11-16T22:56:38.516Z,99087.84
2022-11-16T22:59:07.756Z,99071.22
2022-11-16T23:01:34.088Z,99058.09
2022-11-16T23:04:00.540Z,99055.50
2022-11-16T23:06:27.041Z,99041.56
2022-11-16T23:08:53.720Z,99045.91
2022-11-16T23:11:43.758Z,99033.69
2022-11-16T23:14:31.212Z,99023.25
2022-11-16T23:16:57.585Z,99014.53
2022-11-16T23:19:42.779Z,99016.31
2022-11-16T23:22:33.146Z,98998.22
2022-11-16T23:25:18.299Z,99004.25
2022-11-16T23:28:07.691Z,99003.41
2022-11-16T23:30:35.031Z,98989.44
2022-11-16T23:33:02.223Z,98979.84
2022-11-16T23:35:28.590Z,98983.34
2022-11-16T23:38:01.913Z,98969.38
2022-11-16T23:40:31.108Z,98958.00
2022-11-16T23:43:16.704Z,98949.22
2022-11-16T23:45:44.394Z,98936.09
2022-11-16T23:48:15.282Z,98931.69
2022-11-16T23:50:42.239Z,98909.97
2022-11-16T23:53:10.178Z,98902.19
2022-11-16T23:55:38.322Z,98879.50
2022-11-16T23:58:05.486Z,98883.84
